• Join FlightAware (Why Join?)
  • Login
  • US Flag 
01:30PM EDT


 

Airport Tracker/Info


-or-


 

Live Flight TrackerFlight Track Log ✈ N960DL ✈ 11-Jun-2013 ✈ KDTW - KDCA

Flight Track Log - Related Links

Times and Time Zones

All times are in EDT time to prevent confusion due to time zone crossing. See the N960DL flight status page for this flight to view local times or setup timezone preferences in your user account.

Time Position Orientation Groundspeed Altitude Reporting Facility
EDT Latitude Longitude Course Direction KTS MPH feet Rate Location/Type
04:17PM 42.2017 -83.3583 90° East 160 184 1,300  Level Cleveland Center
04:18PM 42.1175 -83.3825 192° South 258 297 4,100 2,340 Climbing Cleveland Center
04:19PM 42.0450 -83.3625 168° South 296 341 7,100 2,280 Climbing Cleveland Center
04:20PM 42.1376 -82.8549 98° East  Level FlightAware Approximate
04:20PM 42.0361 -83.3006 101° East 317 365 8,200  Level Cleveland Center
04:21PM 42.1101 -82.6907 98° East  Level FlightAware Approximate
04:21PM 42.0411 -83.1722 87° East 317 365 10,000  Level Cleveland Center
04:22PM 42.0833 -82.5275 90° East  Level FlightAware Approximate
04:22PM 42.0503 -83.0411 85° East 329 379 10,400  Level Cleveland Center
04:23PM 42.0575 -82.8961 86° East 361 415 13,200 2,580 Climbing Cleveland Center
04:24PM 42.0689 -82.7397 84° East 394 453 15,600 2,340 Climbing Cleveland Center
04:25PM 42.0803 -82.5778 85° East 416 479 17,900 2,040 Climbing Cleveland Center
04:26PM 42.0769 -82.4044 91° East 437 503 19,700 1,860 Climbing Cleveland Center
04:27PM 42.0461 -82.2217 103° East 484 557 21,700 1,920 Climbing Cleveland Center
04:28PM 41.9986 -82.0500 110° East 490 564 23,600 1,560 Climbing Cleveland Center
04:29PM 41.8894 -81.9275 140° Southeast 485 558 24,900 1,500 Climbing Cleveland Center
04:30PM 41.7656 -81.8219 148° Southeast 505 581 26,700 1,800 Climbing Cleveland Center
04:31PM 41.6417 -81.7167 148° Southeast 522 601 28,500 1,560 Climbing Cleveland Center
04:32PM 41.5053 -81.6033 148° Southeast 527 606 29,900 1,380 Climbing Cleveland Center
04:33PM 41.3853 -81.4964 146° Southeast 532 612 31,300 1,200 Climbing Cleveland Center
04:34PM 41.2567 -81.3953 149° Southeast 526 605 32,400 960 Climbing Cleveland Center
04:35PM 41.1322 -81.2889 147° Southeast 533 613 33,300 960 Climbing Cleveland Center
04:36PM 41.0222 -81.1997 149° Southeast 530 610 34,400 840 Climbing Cleveland Center
04:37PM 40.9039 -81.0997 147° Southeast 516 594 35,000 300 Climbing Cleveland Center
04:38PM 40.7753 -80.9944 148° Southeast 510 587 35,000  Level Cleveland Center
04:39PM 40.6567 -80.8925 147° Southeast 505 581 35,000  Level Cleveland Center
04:40PM 40.5381 -80.7961 148° Southeast 505 581 35,000  Level Cleveland Center
04:41PM 40.4172 -80.7031 150° Southeast 505 581 35,000  Level Cleveland Center
04:42PM 40.2986 -80.6103 149° Southeast 505 581 35,000  Level Cleveland Center
04:43PM 40.1775 -80.5125 148° Southeast 505 581 35,000  Level Cleveland Center
04:44PM 40.0711 -80.4283 149° Southeast 505 581 35,000  Level Cleveland Center
04:45PM 39.9522 -80.3339 149° Southeast 505 581 35,000 -120 Level Cleveland Center
04:47PM 39.7414 -80.1683 149° Southeast 493 567 34,800 -1,140 Descending Washington Center
04:48PM 39.6219 -80.0747 149° Southeast 493 567 32,000 -1,920 Descending Washington Center
04:49PM 39.5006 -79.9783 148° Southeast 500 575 31,000 -540 Descending Washington Center
04:50PM 39.3767 -79.8822 149° Southeast 505 581 31,000 -60 Level Washington Center
04:51PM 39.2961 -79.7461 127° Southeast 492 566 30,900 -1,320 Descending Washington Center
04:52PM 39.2786 -79.5842 98° East 445 512 28,500 -1,680 Descending Washington Center
04:53PM 39.2633 -79.4144 97° East 445 512 27,600 -720 Descending Washington Center
04:54PM 39.2531 -79.2797 96° East 456 525 27,100 -1,200 Descending Washington Center
04:55PM 39.2336 -79.0911 98° East 470 541 25,300 -1,740 Descending Washington Center
04:56PM 39.2178 -78.9083 96° East 470 541 23,700 -2,400 Descending Washington Center
04:57PM 39.2053 -78.7631 96° East 465 535 20,600 -2,880 Descending Washington Center
04:58PM 39.1864 -78.5989 98° East 465 535 18,100 -2,280 Descending Washington Center
04:59PM 39.1733 -78.4511 96° East 443 510 16,100 -1,680 Descending Washington Center
05:00PM 39.1497 -78.3031 102° East 427 491 14,800 -1,080 Descending Washington Center
05:01PM 39.1153 -78.1678 108° East 409 471 14,000 -720 Descending Washington Center
05:02PM 39.0822 -78.0436 109° East 387 445 13,400 -960 Descending Washington Center
05:03PM 39.0533 -77.9278 108° East 358 412 12,100 -900 Descending Washington Center
05:04PM 39.0203 -77.7986 108° East 347 399 11,600 -1,200 Descending Washington Center
05:05PM 38.9908 -77.6933 110° East 332 382 9,800 -1,560 Descending Washington Center
05:06PM 38.9667 -77.5833 106° East 309 356 8,400 -900 Descending Potomac TRACON
05:07PM 38.9333 -77.4667 110° East 306 352 8,000 -720 Descending Potomac TRACON
05:08PM 38.9000 -77.3833 117° Southeast 303 349 7,000 -1,020 Descending Potomac TRACON
05:09PM 38.8500 -77.2833 123° Southeast 299 344 6,000 -480 Descending Potomac TRACON
05:10PM 38.8000 -77.1833 123° Southeast 271 312 6,000  Level Potomac TRACON
05:11PM 38.7667 -77.1167 123° Southeast 256 295 6,000 -480 Level Potomac TRACON
05:12PM 38.7000 -77.1000 169° South 230 265 5,100 -1,080 Descending Potomac TRACON
05:13PM 38.6333 -77.1000 180° South 233 268 3,900 -1,260 Descending Potomac TRACON
05:14PM 38.6333 -77.0333 90° East 248 285 2,600 -720 Descending Potomac TRACON
05:15PM 38.6833 -77.0333 360° North 217 250 2,500 -120 Descending Potomac TRACON